Time;durP1;ratioP1;P1;durP2;ratioP2;P2;SDS_P1;SDS_P2;PMS_P1;PMS_P2;Temp;Humidity;BMP_temperature;BMP_pressure;BME280_temperature;BME280_humidity;BME280_pressure;Samples;Min_cycle;Max_cycle;Signal;HPM_P1;HPM_P2
2022/09/20 00:00:30;;;;;;;7.45;1.67;;;;;;;;;;5051752;28;20271;-68
2022/09/20 00:02:55;;;;;;;9.48;1.95;;;;;;;;;;5054404;28;20533;-66
2022/09/20 00:05:20;;;;;;;17.52;2.15;;;;;;;;;;5052471;28;20013;-66
2022/09/20 00:07:46;;;;;;;13.55;1.90;;;;;;;;;;5050567;28;20501;-67
2022/09/20 00:10:11;;;;;;;15.48;2.35;;;;;;;;;;5052935;28;20013;-67
2022/09/20 00:12:36;;;;;;;16.95;2.20;;;;;;;;;;5051997;28;20406;-67
2022/09/20 00:15:02;;;;;;;13.80;2.00;;;;;;;;;;5052517;28;20032;-68
2022/09/20 00:17:28;;;;;;;15.77;2.28;;;;;;;;;;5051870;28;20075;-68
2022/09/20 00:19:53;;;;;;;12.25;3.45;;;;;;;;;;5052790;28;20063;-66
2022/09/20 00:22:18;;;;;;;11.32;2.20;;;;;;;;;;5052728;28;20028;-68
2022/09/20 00:24:44;;;;;;;13.63;2.23;;;;;;;;;;5053455;28;20096;-68
2022/09/20 00:27:09;;;;;;;10.70;3.00;;;;;;;;;;5053450;28;20267;-66
2022/09/20 00:29:34;;;;;;;9.73;2.00;;;;;;;;;;5052269;28;20647;-69
2022/09/20 00:31:59;;;;;;;11.07;2.20;;;;;;;;;;5054775;28;20040;-68
2022/09/20 00:37:25;;;;;;;5.88;2.15;;;;;;;;;;4946150;29;21137;-68
2022/09/20 00:39:50;;;;;;;8.35;2.53;;;;;;;;;;5030879;28;20049;-67
2022/09/20 00:42:16;;;;;;;12.80;1.90;;;;;;;;;;5052739;28;20078;-67
2022/09/20 00:44:48;;;;;;;17.83;3.13;;;;;;;;;;5050415;28;20260;-68
2022/09/20 00:47:18;;;;;;;14.13;2.20;;;;;;;;;;5069351;28;20255;-68
2022/09/20 00:49:43;;;;;;;;;;;;;;;;;;5053523;28;20024;-68
2022/09/20 00:52:09;;;;;;;6.78;2.17;;;;;;;;;;5054404;28;19915;-68
2022/09/20 00:54:35;;;;;;;8.97;2.20;;;;;;;;;;5064870;28;20059;-68
2022/09/20 00:57:00;;;;;;;12.75;2.40;;;;;;;;;;5049709;28;20282;-68
2022/09/20 00:59:33;;;;;;;9.95;2.35;;;;;;;;;;5050038;28;20040;-68
2022/09/20 01:02:01;;;;;;;16.52;2.92;;;;;;;;;;5033786;28;20020;-68
2022/09/20 01:04:27;;;;;;;10.77;2.17;;;;;;;;;;5047801;28;20029;-68
2022/09/20 01:06:53;;;;;;;11.55;2.67;;;;;;;;;;5052836;28;20056;-68
2022/09/20 01:09:19;;;;;;;19.90;2.60;;;;;;;;;;5050942;28;20045;-67
2022/09/20 01:11:44;;;;;;;26.00;2.83;;;;;;;;;;5051785;28;20075;-68
2022/09/20 01:14:12;;;;;;;14.27;3.25;;;;;;;;;;5051902;28;20264;-68
2022/09/20 01:16:37;;;;;;;8.95;2.28;;;;;;;;;;5051784;28;20020;-68
2022/09/20 01:19:07;;;;;;;6.75;2.60;;;;;;;;;;5051814;28;20036;-68
2022/09/20 01:21:33;;;;;;;17.40;2.88;;;;;;;;;;5053060;28;20021;-68
2022/09/20 01:24:09;;;;;;;9.15;2.38;;;;;;;;;;5051498;28;20722;-68
2022/09/20 01:26:37;;;;;;;12.32;3.00;;;;;;;;;;5050933;28;20021;-68
2022/09/20 01:29:21;;;;;;;16.13;3.88;;;;;;;;;;5051325;28;20033;-67
2022/09/20 01:31:51;;;;;;;11.27;2.58;;;;;;;;;;5051428;28;20625;-68
2022/09/20 01:34:42;;;;;;;11.80;2.20;;;;;;;;;;5050010;28;20021;-68
2022/09/20 01:37:15;;;;;;;16.00;2.58;;;;;;;;;;5048218;28;20036;-68
2022/09/20 01:39:52;;;;;;;13.25;2.40;;;;;;;;;;5051872;28;20039;-68
2022/09/20 01:42:17;;;;;;;22.10;2.55;;;;;;;;;;5050878;28;20028;-67
2022/09/20 01:45:00;;;;;;;13.05;2.78;;;;;;;;;;5034066;28;20411;-68
2022/09/20 01:47:34;;;;;;;12.02;2.33;;;;;;;;;;5049597;28;20025;-68
2022/09/20 01:50:17;;;;;;;10.07;3.05;;;;;;;;;;5051454;28;20021;-68
2022/09/20 01:52:54;;;;;;;9.25;2.20;;;;;;;;;;5051588;28;20478;-68
2022/09/20 01:55:38;;;;;;;13.18;4.32;;;;;;;;;;5043622;28;20522;-68
2022/09/20 01:58:31;;;;;;;6.68;2.38;;;;;;;;;;5049692;28;20095;-68
2022/09/20 02:01:14;;;;;;;10.45;2.53;;;;;;;;;;5049191;28;20020;-68
2022/09/20 02:03:49;;;;;;;15.98;2.85;;;;;;;;;;5046758;28;20057;-68
2022/09/20 02:06:43;;;;;;;11.60;2.30;;;;;;;;;;5058477;28;20036;-69
2022/09/20 02:09:11;;;;;;;6.03;2.55;;;;;;;;;;4995659;28;20435;-68
2022/09/20 02:11:59;;;;;;;8.55;2.45;;;;;;;;;;5050934;28;20021;-67
2022/09/20 02:14:27;;;;;;;12.50;2.70;;;;;;;;;;5021754;28;20067;-69
2022/09/20 02:16:54;;;;;;;9.98;2.67;;;;;;;;;;5048883;28;20556;-68
2022/09/20 02:19:38;;;;;;;10.50;3.08;;;;;;;;;;5033539;28;20121;-67
2022/09/20 02:22:18;;;;;;;6.78;2.10;;;;;;;;;;5051474;28;20021;-68
2022/09/20 02:25:00;;;;;;;12.10;2.55;;;;;;;;;;5050698;28;20148;-68
2022/09/20 02:27:34;;;;;;;14.77;2.72;;;;;;;;;;5050576;28;20028;-68
2022/09/20 02:30:03;;;;;;;13.13;2.78;;;;;;;;;;5050668;28;20025;-67
2022/09/20 02:32:46;;;;;;;9.65;3.00;;;;;;;;;;5050940;28;20027;-68
2022/09/20 02:35:21;;;;;;;9.82;2.30;;;;;;;;;;5048810;28;20055;-68
2022/09/20 02:37:54;;;;;;;14.52;2.75;;;;;;;;;;5049256;28;20036;-68
2022/09/20 02:40:44;;;;;;;7.97;2.20;;;;;;;;;;5050509;28;20027;-68
2022/09/20 02:43:23;;;;;;;13.57;2.97;;;;;;;;;;5051829;28;20032;-67
2022/09/20 02:45:51;;;;;;;16.52;2.90;;;;;;;;;;5054897;28;20052;-68
2022/09/20 02:48:20;;;;;;;9.15;2.30;;;;;;;;;;5065208;28;20020;-68
2022/09/20 02:50:54;;;;;;;6.07;2.47;;;;;;;;;;5053127;28;20424;-68
2022/09/20 02:53:29;;;;;;;5.60;2.40;;;;;;;;;;5043625;28;20473;-68
2022/09/20 02:56:17;;;;;;;13.20;2.58;;;;;;;;;;5030473;28;20079;-66
2022/09/20 02:59:01;;;;;;;14.23;2.58;;;;;;;;;;5030844;28;20108;-67
2022/09/20 03:01:52;;;;;;;15.32;2.75;;;;;;;;;;5048727;28;20021;-68
2022/09/20 03:04:23;;;;;;;8.35;2.35;;;;;;;;;;5040625;28;20025;-68
2022/09/20 03:06:56;;;;;;;15.98;2.90;;;;;;;;;;5048882;28;20041;-67
2022/09/20 03:09:28;;;;;;;8.23;2.40;;;;;;;;;;5050174;28;20021;-68
2022/09/20 03:11:56;;;;;;;9.70;3.22;;;;;;;;;;5049036;28;20021;-68
2022/09/20 03:14:34;;;;;;;34.10;3.55;;;;;;;;;;5049423;28;20057;-67
2022/09/20 03:17:18;;;;;;;10.45;2.97;;;;;;;;;;5051069;28;20096;-67
2022/09/20 03:19:50;;;;;;;16.95;4.30;;;;;;;;;;5052256;28;20021;-68
2022/09/20 03:22:21;;;;;;;11.00;2.63;;;;;;;;;;5053031;28;20108;-68
2022/09/20 03:25:06;;;;;;;8.77;2.35;;;;;;;;;;5035456;28;20180;-68
2022/09/20 03:27:40;;;;;;;9.98;2.92;;;;;;;;;;5021990;28;20025;-68
2022/09/20 03:30:05;;;;;;;7.53;2.55;;;;;;;;;;5052953;28;20102;-67
2022/09/20 03:32:39;;;;;;;7.93;2.67;;;;;;;;;;5054326;28;20075;-68
2022/09/20 03:35:05;;;;;;;7.80;3.13;;;;;;;;;;5054317;28;20630;-68
2022/09/20 03:37:48;;;;;;;17.70;3.42;;;;;;;;;;5054598;28;20024;-68
2022/09/20 03:40:16;;;;;;;7.72;2.53;;;;;;;;;;5066947;28;20028;-68
2022/09/20 03:42:46;;;;;;;8.38;2.53;;;;;;;;;;5055749;28;20051;-68
2022/09/20 03:45:20;;;;;;;11.68;2.65;;;;;;;;;;5060901;28;20017;-68
2022/09/20 03:47:45;;;;;;;22.08;3.22;;;;;;;;;;5053234;28;20541;-68
2022/09/20 03:50:30;;;;;;;13.23;3.50;;;;;;;;;;5053072;28;20108;-68
2022/09/20 03:53:14;;;;;;;11.60;2.85;;;;;;;;;;5051278;28;20267;-68
2022/09/20 03:55:48;;;;;;;21.65;3.10;;;;;;;;;;5050033;28;20495;-68
2022/09/20 03:58:28;;;;;;;12.77;2.85;;;;;;;;;;5032851;28;20021;-68
2022/09/20 04:01:02;;;;;;;13.95;2.63;;;;;;;;;;5048640;28;20365;-68
2022/09/20 04:03:30;;;;;;;8.10;2.75;;;;;;;;;;5051091;28;20033;-68
2022/09/20 04:05:59;;;;;;;9.07;2.97;;;;;;;;;;5049521;28;20444;-68
2022/09/20 04:08:43;;;;;;;9.00;2.85;;;;;;;;;;5060599;28;20140;-67
2022/09/20 04:11:27;;;;;;;18.08;3.60;;;;;;;;;;5054219;28;20059;-67
2022/09/20 04:14:11;;;;;;;8.23;3.10;;;;;;;;;;5054373;28;20103;-67
2022/09/20 04:17:03;;;;;;;10.55;3.33;;;;;;;;;;5050346;28;20021;-67
2022/09/20 04:19:40;;;;;;;9.80;3.33;;;;;;;;;;5041990;28;20035;-68
2022/09/20 04:22:06;;;;;;;10.90;2.83;;;;;;;;;;5051743;28;20024;-68
2022/09/20 04:24:51;;;;;;;13.35;3.55;;;;;;;;;;5056528;28;20027;-66
2022/09/20 04:27:36;;;;;;;11.75;2.60;;;;;;;;;;5055105;28;20100;-68
2022/09/20 04:30:06;;;;;;;5.90;2.67;;;;;;;;;;5057745;22;20050;-64
2022/09/20 04:32:40;;;;;;;15.95;3.05;;;;;;;;;;5037360;28;20065;-64
2022/09/20 04:38:09;;;;;;;7.68;3.03;;;;;;;;;;5033542;28;20048;-64
2022/09/20 04:40:43;;;;;;;14.27;2.95;;;;;;;;;;5032927;28;20036;-64
2022/09/20 04:43:21;;;;;;;10.00;3.33;;;;;;;;;;5032664;28;20033;-64
2022/09/20 04:45:50;;;;;;;13.65;2.78;;;;;;;;;;5036131;28;20021;-64
2022/09/20 04:48:15;;;;;;;15.27;2.80;;;;;;;;;;5035968;28;20989;-64
2022/09/20 04:50:59;;;;;;;11.97;3.07;;;;;;;;;;5028868;28;20021;-64
2022/09/20 04:53:43;;;;;;;12.68;2.60;;;;;;;;;;5025484;28;20736;-64
2022/09/20 04:56:31;;;;;;;12.18;2.83;;;;;;;;;;5030473;28;20112;-64
2022/09/20 04:59:06;;;;;;;13.57;2.95;;;;;;;;;;5032748;28;20028;-64
2022/09/20 05:01:32;;;;;;;15.43;3.65;;;;;;;;;;5029201;28;20499;-64
2022/09/20 05:04:00;;;;;;;11.85;2.78;;;;;;;;;;5033449;28;20021;-61
2022/09/20 05:06:45;;;;;;;8.45;2.75;;;;;;;;;;5017314;28;20470;-61
2022/09/20 05:09:19;;;;;;;13.68;2.75;;;;;;;;;;5011367;28;20041;-61
2022/09/20 05:12:00;;;;;;;10.13;2.58;;;;;;;;;;5012020;28;20014;-61
2022/09/20 05:14:44;;;;;;;10.52;3.00;;;;;;;;;;5011526;28;20018;-61
2022/09/20 05:17:13;;;;;;;14.00;3.15;;;;;;;;;;5033189;28;20009;-61
2022/09/20 05:20:00;;;;;;;9.57;3.00;;;;;;;;;;5031309;28;20017;-61
2022/09/20 05:22:44;;;;;;;11.93;2.80;;;;;;;;;;5014897;28;20394;-64
2022/09/20 05:25:28;;;;;;;16.67;3.33;;;;;;;;;;5031035;28;20017;-64
2022/09/20 05:28:26;;;;;;;11.25;3.17;;;;;;;;;;5031019;28;20467;-64
2022/09/20 05:30:56;;;;;;;21.15;4.38;;;;;;;;;;4985909;28;20041;-64
2022/09/20 05:33:43;;;;;;;7.55;3.65;;;;;;;;;;5033644;28;20485;-64
2022/09/20 05:36:27;;;;;;;20.38;4.03;;;;;;;;;;5027890;28;20060;-64
2022/09/20 05:39:00;;;;;;;10.98;4.00;;;;;;;;;;5032087;28;20026;-64
2022/09/20 05:41:51;;;;;;;14.75;3.10;;;;;;;;;;5030607;28;20063;-64
2022/09/20 05:44:38;;;;;;;6.13;2.95;;;;;;;;;;5016832;28;20034;-64
2022/09/20 05:47:17;;;;;;;13.23;3.60;;;;;;;;;;5029053;28;20361;-64
2022/09/20 05:49:49;;;;;;;13.65;3.65;;;;;;;;;;5029155;28;20505;-64
2022/09/20 05:52:20;;;;;;;13.32;3.20;;;;;;;;;;5046933;28;20023;-64
2022/09/20 05:55:04;;;;;;;12.73;4.38;;;;;;;;;;5035883;28;20025;-64
2022/09/20 05:57:55;;;;;;;10.00;3.45;;;;;;;;;;5030099;28;20017;-64
2022/09/20 06:00:21;;;;;;;11.63;3.17;;;;;;;;;;5033915;28;20025;-64
2022/09/20 06:03:08;;;;;;;13.88;3.72;;;;;;;;;;5029730;28;20041;-64
2022/09/20 06:05:36;;;;;;;19.70;5.18;;;;;;;;;;5026466;28;21362;-64
2022/09/20 06:08:02;;;;;;;12.60;3.45;;;;;;;;;;5032540;28;20021;-64
2022/09/20 06:10:42;;;;;;;16.42;4.05;;;;;;;;;;5033602;28;20028;-64
2022/09/20 06:13:26;;;;;;;19.17;4.13;;;;;;;;;;5032211;28;20026;-64
2022/09/20 06:15:59;;;;;;;15.80;5.15;;;;;;;;;;5027741;28;20034;-64
2022/09/20 06:18:38;;;;;;;19.35;4.85;;;;;;;;;;5023848;28;20505;-64
2022/09/20 06:21:22;;;;;;;23.97;5.27;;;;;;;;;;5029431;28;20107;-64
2022/09/20 06:23:47;;;;;;;20.00;5.38;;;;;;;;;;5026940;28;20032;-65
2022/09/20 06:26:22;;;;;;;19.83;5.30;;;;;;;;;;5031024;28;20331;-64
2022/09/20 06:28:56;;;;;;;33.42;5.80;;;;;;;;;;5039721;28;20408;-61
2022/09/20 06:31:22;;;;;;;18.30;6.57;;;;;;;;;;5028499;28;20044;-64
2022/09/20 06:33:49;;;;;;;17.98;5.90;;;;;;;;;;5030807;28;20060;-64
2022/09/20 06:41:45;;;;;;;19.05;6.32;;;;;;;;;;5029722;28;20071;-64
2022/09/20 06:44:11;;;;;;;17.00;5.20;;;;;;;;;;5044540;28;20462;-64
2022/09/20 06:46:37;;;;;;;21.13;5.83;;;;;;;;;;5031509;28;20022;-64
2022/09/20 06:49:02;;;;;;;14.20;5.07;;;;;;;;;;5027932;28;20292;-64
2022/09/20 06:51:32;;;;;;;17.63;6.25;;;;;;;;;;5029169;28;20048;-64
2022/09/20 06:53:58;;;;;;;13.60;5.85;;;;;;;;;;5027862;28;20018;-64
2022/09/20 06:56:25;;;;;;;19.98;5.57;;;;;;;;;;5040329;28;20034;-64
2022/09/20 06:58:51;;;;;;;18.45;6.07;;;;;;;;;;5015076;28;20091;-64
2022/09/20 07:01:16;;;;;;;26.27;5.95;;;;;;;;;;5035478;28;20021;-64
2022/09/20 07:03:42;;;;;;;21.27;6.57;;;;;;;;;;5049985;28;20434;-64
2022/09/20 07:06:08;;;;;;;21.40;5.80;;;;;;;;;;5034738;28;20028;-64
2022/09/20 07:08:33;;;;;;;11.10;4.75;;;;;;;;;;5033896;28;20263;-64
2022/09/20 07:11:03;;;;;;;17.73;6.40;;;;;;;;;;5035223;28;20444;-64
2022/09/20 07:13:28;;;;;;;19.02;6.00;;;;;;;;;;5033978;28;20367;-64
2022/09/20 07:15:58;;;;;;;20.10;6.33;;;;;;;;;;5033474;28;20024;-64
2022/09/20 07:18:24;;;;;;;20.20;5.32;;;;;;;;;;5014838;28;20248;-64
2022/09/20 07:20:49;;;;;;;14.15;5.65;;;;;;;;;;5031202;28;20030;-64
2022/09/20 07:23:14;;;;;;;23.07;6.33;;;;;;;;;;5031791;28;20037;-64
2022/09/20 07:25:39;;;;;;;15.32;5.50;;;;;;;;;;5033527;28;20640;-64
2022/09/20 07:28:04;;;;;;;24.63;5.57;;;;;;;;;;5034809;28;20021;-64
2022/09/20 07:30:30;;;;;;;14.27;5.23;;;;;;;;;;5033748;28;20264;-64
2022/09/20 07:32:55;;;;;;;18.00;5.18;;;;;;;;;;5033359;28;20748;-64
2022/09/20 07:35:20;;;;;;;18.83;4.57;;;;;;;;;;5032792;28;20032;-62
2022/09/20 07:37:45;;;;;;;12.10;5.33;;;;;;;;;;5016748;28;20776;-62
2022/09/20 07:40:11;;;;;;;;;;;;;;;;;;5013022;28;20261;-62
2022/09/20 07:42:36;;;;;;;13.65;5.25;;;;;;;;;;5013467;28;19916;-62
2022/09/20 07:45:02;;;;;;;15.70;5.20;;;;;;;;;;5013103;28;20018;-62
2022/09/20 07:47:30;;;;;;;17.02;5.25;;;;;;;;;;5013311;28;20024;-62
2022/09/20 07:49:56;;;;;;;12.90;5.47;;;;;;;;;;5014961;28;20024;-62
2022/09/20 07:52:21;;;;;;;17.60;5.20;;;;;;;;;;5032976;28;20021;-62
2022/09/20 07:54:48;;;;;;;15.60;5.50;;;;;;;;;;5032656;28;20029;-63
2022/09/20 07:57:13;;;;;;;;;;;;;;;;;;5032387;28;20026;-63
2022/09/20 07:59:39;;;;;;;17.83;5.53;;;;;;;;;;5034938;28;19913;-63
2022/09/20 08:02:04;;;;;;;16.63;5.80;;;;;;;;;;5050490;28;20033;-63
2022/09/20 08:04:29;;;;;;;14.83;4.80;;;;;;;;;;5046859;28;20260;-63
2022/09/20 08:06:54;;;;;;;11.10;4.73;;;;;;;;;;5032776;28;20620;-63
2022/09/20 08:09:19;;;;;;;12.27;3.88;;;;;;;;;;5033552;28;20346;-63
2022/09/20 08:11:45;;;;;;;14.95;4.63;;;;;;;;;;5033168;28;20022;-63
2022/09/20 08:14:14;;;;;;;15.73;4.53;;;;;;;;;;5031938;28;20366;-63
2022/09/20 08:16:50;;;;;;;12.00;4.00;;;;;;;;;;5032445;28;20014;-63
2022/09/20 08:19:17;;;;;;;12.90;3.80;;;;;;;;;;5033190;28;20136;-63
2022/09/20 08:21:43;;;;;;;14.43;3.47;;;;;;;;;;5031473;28;20022;-63
2022/09/20 08:24:08;;;;;;;11.15;3.45;;;;;;;;;;5043107;28;20385;-63
2022/09/20 08:26:34;;;;;;;13.67;3.67;;;;;;;;;;5052675;28;20016;-63
2022/09/20 08:29:00;;;;;;;18.27;3.85;;;;;;;;;;5052077;28;20259;-63
2022/09/20 08:31:35;;;;;;;21.27;4.78;;;;;;;;;;5036859;28;20027;-64
2022/09/20 08:34:02;;;;;;;13.63;3.72;;;;;;;;;;5032444;28;20064;-63
2022/09/20 08:36:28;;;;;;;9.75;2.78;;;;;;;;;;5032765;28;20013;-64
2022/09/20 08:38:54;;;;;;;19.15;3.13;;;;;;;;;;5034179;28;20045;-64
2022/09/20 08:41:27;;;;;;;18.27;2.90;;;;;;;;;;5032321;28;20091;-63
2022/09/20 08:43:57;;;;;;;15.18;3.45;;;;;;;;;;5032291;28;20366;-63
2022/09/20 08:46:23;;;;;;;;;;;;;;;;;;5032544;28;20424;-63
2022/09/20 08:48:49;;;;;;;10.93;2.47;;;;;;;;;;5030980;28;20369;-63
2022/09/20 08:51:15;;;;;;;17.42;3.45;;;;;;;;;;5030003;28;20022;-63
2022/09/20 08:53:51;;;;;;;11.15;2.58;;;;;;;;;;5031549;28;20112;-63
2022/09/20 08:56:17;;;;;;;15.18;3.00;;;;;;;;;;5042176;28;20056;-63
2022/09/20 08:58:43;;;;;;;9.60;2.17;;;;;;;;;;5043180;28;20044;-63
2022/09/20 09:01:20;;;;;;;13.68;3.03;;;;;;;;;;5033776;28;20385;-63
2022/09/20 09:03:46;;;;;;;9.45;2.10;;;;;;;;;;5036798;28;20075;-63
2022/09/20 09:06:13;;;;;;;10.52;1.80;;;;;;;;;;5032237;28;20051;-63
2022/09/20 09:08:38;;;;;;;8.10;1.63;;;;;;;;;;5032082;28;20097;-63
2022/09/20 09:11:08;;;;;;;14.10;1.77;;;;;;;;;;5031850;28;20044;-63
2022/09/20 09:13:43;;;;;;;14.82;2.25;;;;;;;;;;5031744;28;20013;-63
2022/09/20 09:16:11;;;;;;;11.88;2.30;;;;;;;;;;5030195;28;20053;-63
2022/09/20 09:18:38;;;;;;;15.95;2.53;;;;;;;;;;5031088;28;20017;-63
2022/09/20 09:21:05;;;;;;;12.90;2.22;;;;;;;;;;5029788;28;20113;-63
2022/09/20 09:23:37;;;;;;;9.13;2.33;;;;;;;;;;5031464;28;20056;-63
2022/09/20 09:26:03;;;;;;;21.70;2.80;;;;;;;;;;5030994;28;20488;-63
2022/09/20 09:28:35;;;;;;;12.02;2.60;;;;;;;;;;5027993;28;20025;-63
2022/09/20 09:31:11;;;;;;;12.57;1.85;;;;;;;;;;5030438;28;20502;-63
2022/09/20 09:33:41;;;;;;;16.92;2.45;;;;;;;;;;5032228;28;20025;-63
2022/09/20 09:36:13;;;;;;;5.25;2.30;;;;;;;;;;5030291;28;20489;-63
2022/09/20 09:38:39;;;;;;;9.63;2.42;;;;;;;;;;5032026;28;20024;-63
2022/09/20 09:41:26;;;;;;;12.23;2.20;;;;;;;;;;5023020;28;20017;-63
2022/09/20 09:43:58;;;;;;;16.70;3.17;;;;;;;;;;5019273;28;20393;-63
2022/09/20 09:46:25;;;;;;;10.40;2.90;;;;;;;;;;5032412;28;20037;-63
2022/09/20 09:49:03;;;;;;;10.80;1.92;;;;;;;;;;5030476;28;20033;-63
2022/09/20 09:51:30;;;;;;;13.52;2.67;;;;;;;;;;5031191;28;20017;-63
2022/09/20 09:53:55;;;;;;;11.07;1.95;;;;;;;;;;5029921;28;20497;-64
2022/09/20 09:56:30;;;;;;;14.80;2.30;;;;;;;;;;5029838;28;20029;-63
2022/09/20 09:58:56;;;;;;;9.02;2.20;;;;;;;;;;5029549;28;20033;-63
2022/09/20 10:01:24;;;;;;;16.70;2.00;;;;;;;;;;5030906;28;20028;-63
2022/09/20 10:03:59;;;;;;;14.73;2.03;;;;;;;;;;5028588;28;20033;-63
2022/09/20 10:06:29;;;;;;;15.05;1.70;;;;;;;;;;5027358;28;20017;-63
2022/09/20 10:08:57;;;;;;;10.63;1.90;;;;;;;;;;5030042;28;20044;-63
2022/09/20 10:11:28;;;;;;;8.82;2.15;;;;;;;;;;5030255;28;20021;-63
2022/09/20 10:14:10;;;;;;;8.77;2.08;;;;;;;;;;5031017;28;20025;-63
2022/09/20 10:16:57;;;;;;;20.02;2.30;;;;;;;;;;5041626;28;20496;-63
2022/09/20 10:19:33;;;;;;;20.05;2.28;;;;;;;;;;5028793;28;20078;-63
2022/09/20 10:22:27;;;;;;;10.57;1.60;;;;;;;;;;5027964;28;20025;-63
2022/09/20 10:25:10;;;;;;;13.73;2.30;;;;;;;;;;5029640;28;20096;-63
2022/09/20 10:27:44;;;;;;;9.93;1.77;;;;;;;;;;5028936;28;20049;-63
2022/09/20 10:30:13;;;;;;;9.02;1.75;;;;;;;;;;5028381;28;20400;-63
2022/09/20 10:32:58;;;;;;;13.65;1.92;;;;;;;;;;5012650;28;20117;-63
2022/09/20 10:35:23;;;;;;;17.42;2.67;;;;;;;;;;5030648;28;20018;-63
2022/09/20 10:38:07;;;;;;;14.83;1.90;;;;;;;;;;5030127;28;20025;-64
2022/09/20 10:43:41;;;;;;;10.07;1.40;;;;;;;;;;5036547;28;20144;-63
2022/09/20 10:46:09;;;;;;;10.60;1.95;;;;;;;;;;5028170;28;20533;-63
2022/09/20 10:48:54;;;;;;;13.55;1.70;;;;;;;;;;5028771;28;20021;-63
2022/09/20 10:51:25;;;;;;;10.88;1.80;;;;;;;;;;5028333;28;20425;-63
2022/09/20 10:54:06;;;;;;;9.55;1.95;;;;;;;;;;5030028;28;20036;-64
2022/09/20 10:56:32;;;;;;;13.38;1.20;;;;;;;;;;5024405;28;20555;-63
2022/09/20 10:59:00;;;;;;;9.50;1.90;;;;;;;;;;5028017;28;20105;-63
2022/09/20 11:01:40;;;;;;;12.23;1.85;;;;;;;;;;5032481;28;20017;-64
2022/09/20 11:04:06;;;;;;;18.33;2.30;;;;;;;;;;5031221;28;20030;-63
2022/09/20 11:06:38;;;;;;;9.13;1.67;;;;;;;;;;5032420;28;20032;-64
2022/09/20 11:09:05;;;;;;;15.40;2.47;;;;;;;;;;5029710;28;20520;-63
2022/09/20 11:11:34;;;;;;;10.20;1.63;;;;;;;;;;5035425;28;20517;-63
2022/09/20 11:13:59;;;;;;;16.05;1.85;;;;;;;;;;5030567;28;20507;-64
2022/09/20 11:16:28;;;;;;;5.40;1.87;;;;;;;;;;5032530;28;20032;-64
2022/09/20 11:18:53;;;;;;;21.15;3.78;;;;;;;;;;5030655;28;20260;-64
2022/09/20 11:21:23;;;;;;;10.50;1.77;;;;;;;;;;5023297;28;20107;-64
2022/09/20 11:23:49;;;;;;;;;;;;;;;;;;5030609;28;20029;-64
2022/09/20 11:26:35;;;;;;;13.27;2.05;;;;;;;;;;5029843;28;19908;-64
2022/09/20 11:29:17;;;;;;;9.77;1.38;;;;;;;;;;5028763;28;20560;-63
2022/09/20 11:31:45;;;;;;;14.90;1.42;;;;;;;;;;5026089;28;20030;-64
2022/09/20 11:34:21;;;;;;;8.75;2.00;;;;;;;;;;5024604;28;20132;-64
2022/09/20 11:36:52;;;;;;;17.17;2.03;;;;;;;;;;5029603;28;20025;-64
2022/09/20 11:39:21;;;;;;;10.23;1.63;;;;;;;;;;5027914;28;20067;-64
2022/09/20 11:41:48;;;;;;;12.10;2.05;;;;;;;;;;5014021;28;20044;-64
2022/09/20 11:44:15;;;;;;;11.02;1.92;;;;;;;;;;5034924;28;20474;-64
2022/09/20 11:46:46;;;;;;;13.50;1.67;;;;;;;;;;5032228;28;20025;-64
2022/09/20 11:49:14;;;;;;;9.88;2.10;;;;;;;;;;5033254;28;20704;-64
2022/09/20 11:51:44;;;;;;;7.05;1.30;;;;;;;;;;5032231;28;20032;-64
2022/09/20 11:54:28;;;;;;;18.63;1.90;;;;;;;;;;5035134;28;20021;-64
2022/09/20 11:56:58;;;;;;;9.50;1.20;;;;;;;;;;5033329;28;20104;-64
2022/09/20 11:59:30;;;;;;;2.92;1.05;;;;;;;;;;5036942;28;20565;-64
2022/09/20 12:01:59;;;;;;;8.52;1.60;;;;;;;;;;5038304;28;20021;-64
2022/09/20 12:04:32;;;;;;;9.32;1.40;;;;;;;;;;5037802;28;20013;-64
2022/09/20 12:07:00;;;;;;;10.38;1.40;;;;;;;;;;5033485;28;20098;-64
2022/09/20 12:09:29;;;;;;;12.43;1.23;;;;;;;;;;5038662;28;20066;-64
2022/09/20 12:11:54;;;;;;;10.93;1.95;;;;;;;;;;5031272;28;20478;-64
2022/09/20 12:14:24;;;;;;;7.88;1.20;;;;;;;;;;5033843;28;20074;-64
2022/09/20 12:16:50;;;;;;;;;;;;;;;;;;5026374;28;20022;-64
2022/09/20 12:19:35;;;;;;;9.95;1.02;;;;;;;;;;5041432;28;19934;-64
2022/09/20 12:22:14;;;;;;;10.75;1.25;;;;;;;;;;5033459;28;20021;-64
2022/09/20 12:24:40;;;;;;;7.20;1.10;;;;;;;;;;5033604;28;20040;-64
2022/09/20 12:27:21;;;;;;;5.88;1.00;;;;;;;;;;5044311;28;20489;-64
2022/09/20 12:29:49;;;;;;;7.63;1.10;;;;;;;;;;5034396;28;20021;-64
2022/09/20 12:32:30;;;;;;;6.57;1.10;;;;;;;;;;5048593;28;20121;-64
2022/09/20 12:34:55;;;;;;;6.55;0.90;;;;;;;;;;5032598;28;20029;-64
2022/09/20 12:37:24;;;;;;;7.43;1.20;;;;;;;;;;5031401;28;20025;-64
2022/09/20 12:39:53;;;;;;;8.55;1.15;;;;;;;;;;5032125;28;20017;-64
2022/09/20 12:42:20;;;;;;;4.85;0.85;;;;;;;;;;5031611;28;20612;-64
2022/09/20 12:44:48;;;;;;;7.43;1.05;;;;;;;;;;5033195;28;20044;-64
2022/09/20 12:47:19;;;;;;;4.65;1.60;;;;;;;;;;5047914;28;20092;-64
2022/09/20 12:55:26;;;;;;;2.38;0.50;;;;;;;;;;5031462;28;20044;-64
2022/09/20 12:57:53;;;;;;;5.53;0.73;;;;;;;;;;5033916;28;20092;-64
2022/09/20 13:00:30;;;;;;;3.53;0.80;;;;;;;;;;5030944;28;20037;-64
2022/09/20 13:02:56;;;;;;;7.13;0.60;;;;;;;;;;5038411;28;20103;-64
2022/09/20 13:05:39;;;;;;;3.65;0.70;;;;;;;;;;5031328;28;20017;-64
2022/09/20 13:08:12;;;;;;;6.93;0.90;;;;;;;;;;5033596;28;20023;-64
2022/09/20 13:10:39;;;;;;;4.50;0.75;;;;;;;;;;5013181;28;20017;-64
2022/09/20 13:13:11;;;;;;;4.55;1.00;;;;;;;;;;5049584;28;20104;-64
2022/09/20 13:15:37;;;;;;;3.65;0.57;;;;;;;;;;5039738;28;20033;-65
2022/09/20 13:18:04;;;;;;;5.05;0.80;;;;;;;;;;5033480;28;20429;-64
2022/09/20 13:20:33;;;;;;;5.00;0.60;;;;;;;;;;5037604;28;20044;-64
2022/09/20 13:22:59;;;;;;;4.43;0.80;;;;;;;;;;5049553;28;20024;-64
2022/09/20 13:25:24;;;;;;;3.65;0.88;;;;;;;;;;5041430;28;20017;-64
2022/09/20 13:28:04;;;;;;;4.63;1.80;;;;;;;;;;5031401;28;20217;-64
2022/09/20 13:30:31;;;;;;;6.22;1.10;;;;;;;;;;5036467;28;20025;-64
2022/09/20 13:33:12;;;;;;;4.88;0.68;;;;;;;;;;5035700;28;20029;-64
2022/09/20 13:35:39;;;;;;;5.15;1.33;;;;;;;;;;5031313;28;20024;-64
2022/09/20 13:38:06;;;;;;;6.53;1.25;;;;;;;;;;5031959;28;20524;-64
2022/09/20 13:40:39;;;;;;;4.47;0.82;;;;;;;;;;5037166;28;20104;-64
2022/09/20 13:43:05;;;;;;;6.50;1.00;;;;;;;;;;5043661;28;20029;-64
2022/09/20 13:45:31;;;;;;;4.22;0.90;;;;;;;;;;5035407;28;20017;-64
2022/09/20 13:47:58;;;;;;;4.30;1.40;;;;;;;;;;5029566;28;20022;-64
2022/09/20 13:50:26;;;;;;;5.55;1.35;;;;;;;;;;5030371;28;20014;-64
2022/09/20 13:52:53;;;;;;;6.53;1.00;;;;;;;;;;5035468;28;20075;-64
2022/09/20 13:55:26;;;;;;;4.32;0.88;;;;;;;;;;5030592;28;20076;-64
2022/09/20 13:57:52;;;;;;;5.45;0.82;;;;;;;;;;5031222;28;20104;-64
2022/09/20 14:00:17;;;;;;;2.50;0.68;;;;;;;;;;5029672;28;20030;-64
2022/09/20 14:02:44;;;;;;;5.85;1.42;;;;;;;;;;5029424;28;20176;-64
2022/09/20 14:05:15;;;;;;;13.80;1.98;;;;;;;;;;5033955;28;20028;-64
2022/09/20 14:07:43;;;;;;;7.85;1.10;;;;;;;;;;5042989;28;20722;-64
2022/09/20 14:10:27;;;;;;;5.03;1.02;;;;;;;;;;5030091;28;20512;-64
2022/09/20 14:12:53;;;;;;;6.60;0.80;;;;;;;;;;5032510;28;20025;-64
2022/09/20 14:15:18;;;;;;;5.57;1.02;;;;;;;;;;5030253;28;20363;-64
2022/09/20 14:17:43;;;;;;;6.75;0.90;;;;;;;;;;5029386;28;20506;-64
2022/09/20 14:20:12;;;;;;;5.65;0.90;;;;;;;;;;5031194;28;20071;-64
2022/09/20 14:22:37;;;;;;;5.00;1.00;;;;;;;;;;5044586;28;20070;-64
2022/09/20 14:25:17;;;;;;;6.95;1.38;;;;;;;;;;5045259;28;20096;-64
2022/09/20 14:27:43;;;;;;;9.10;1.45;;;;;;;;;;5039667;28;20014;-64
2022/09/20 14:30:27;;;;;;;8.60;1.17;;;;;;;;;;5046830;28;20032;-64
2022/09/20 14:32:53;;;;;;;10.15;1.13;;;;;;;;;;5028682;28;20029;-64
2022/09/20 14:35:19;;;;;;;4.70;1.10;;;;;;;;;;5028076;28;20367;-64
2022/09/20 14:37:49;;;;;;;3.80;0.80;;;;;;;;;;5033113;28;20028;-64
2022/09/20 14:40:26;;;;;;;10.93;1.95;;;;;;;;;;5030043;28;20013;-64
2022/09/20 14:42:58;;;;;;;3.20;0.75;;;;;;;;;;5031112;28;20482;-64
2022/09/20 14:45:31;;;;;;;6.50;0.98;;;;;;;;;;5024658;28;20025;-64
2022/09/20 14:47:58;;;;;;;10.75;1.23;;;;;;;;;;5010982;28;20028;-64
2022/09/20 14:50:25;;;;;;;11.60;1.30;;;;;;;;;;5048073;28;20067;-64
2022/09/20 14:52:59;;;;;;;2.75;1.05;;;;;;;;;;5040273;28;20025;-64
2022/09/20 14:55:27;;;;;;;13.70;1.27;;;;;;;;;;5030607;28;20021;-64
2022/09/20 14:57:55;;;;;;;9.68;1.50;;;;;;;;;;5030608;28;20030;-64
2022/09/20 15:00:20;;;;;;;6.95;1.20;;;;;;;;;;5028964;28;20030;-64
2022/09/20 15:02:46;;;;;;;3.40;1.45;;;;;;;;;;5028384;28;20029;-65
2022/09/20 15:05:17;;;;;;;11.55;1.13;;;;;;;;;;5044993;28;20024;-65
2022/09/20 15:07:44;;;;;;;6.05;1.13;;;;;;;;;;5041869;28;20105;-65
2022/09/20 15:10:12;;;;;;;5.88;1.00;;;;;;;;;;5046392;28;20021;-65
2022/09/20 15:12:37;;;;;;;6.57;0.90;;;;;;;;;;5043753;28;20022;-65
2022/09/20 15:15:03;;;;;;;6.68;1.42;;;;;;;;;;5032904;28;20103;-65
2022/09/20 15:17:29;;;;;;;6.50;0.90;;;;;;;;;;5033351;28;20025;-65
2022/09/20 15:19:54;;;;;;;4.77;0.90;;;;;;;;;;5031471;28;20497;-65
2022/09/20 15:22:19;;;;;;;5.90;1.33;;;;;;;;;;5035765;28;20025;-65